sensor_id;sensor_type;location;lat;lon;timestamp;P1;durP1;ratioP1;P2;durP2;ratioP2
21677;SDS011;11000;50.360;7.582;2022-09-01T00:00:47;3.77;;;2.33;;
21677;SDS011;11000;50.360;7.582;2022-09-01T00:03:08;3.30;;;1.83;;
21677;SDS011;11000;50.360;7.582;2022-09-01T00:05:32;3.27;;;2.00;;
21677;SDS011;11000;50.360;7.582;2022-09-01T00:07:53;2.10;;;2.00;;
21677;SDS011;11000;50.360;7.582;2022-09-01T00:10:13;2.83;;;2.23;;
21677;SDS011;11000;50.360;7.582;2022-09-01T00:12:35;2.47;;;2.27;;
21677;SDS011;11000;50.360;7.582;2022-09-01T00:14:57;3.93;;;1.70;;
21677;SDS011;11000;50.360;7.582;2022-09-01T00:17:18;1.87;;;1.50;;
21677;SDS011;11000;50.360;7.582;2022-09-01T00:19:39;1.67;;;1.57;;
21677;SDS011;11000;50.360;7.582;2022-09-01T00:22:00;1.23;;;1.13;;
21677;SDS011;11000;50.360;7.582;2022-09-01T00:24:21;4.00;;;1.43;;
21677;SDS011;11000;50.360;7.582;2022-09-01T00:26:42;3.07;;;1.77;;
21677;SDS011;11000;50.360;7.582;2022-09-01T00:29:03;4.17;;;2.37;;
21677;SDS011;11000;50.360;7.582;2022-09-01T00:31:24;1.93;;;1.70;;
21677;SDS011;11000;50.360;7.582;2022-09-01T00:33:46;3.37;;;1.73;;
21677;SDS011;11000;50.360;7.582;2022-09-01T00:36:08;4.30;;;1.43;;
21677;SDS011;11000;50.360;7.582;2022-09-01T00:38:28;1.93;;;1.70;;
21677;SDS011;11000;50.360;7.582;2022-09-01T00:40:49;2.73;;;1.93;;
21677;SDS011;11000;50.360;7.582;2022-09-01T00:43:55;5.03;;;1.87;;
21677;SDS011;11000;50.360;7.582;2022-09-01T00:46:02;2.33;;;1.60;;
21677;SDS011;11000;50.360;7.582;2022-09-01T00:48:26;1.97;;;1.60;;
21677;SDS011;11000;50.360;7.582;2022-09-01T00:50:47;2.07;;;1.87;;
21677;SDS011;11000;50.360;7.582;2022-09-01T00:53:08;2.13;;;1.43;;
21677;SDS011;11000;50.360;7.582;2022-09-01T00:55:29;3.13;;;1.70;;
21677;SDS011;11000;50.360;7.582;2022-09-01T00:57:51;2.17;;;1.80;;
21677;SDS011;11000;50.360;7.582;2022-09-01T01:00:14;2.30;;;1.90;;
21677;SDS011;11000;50.360;7.582;2022-09-01T01:02:39;2.10;;;1.80;;
21677;SDS011;11000;50.360;7.582;2022-09-01T01:05:00;4.23;;;1.77;;
21677;SDS011;11000;50.360;7.582;2022-09-01T01:07:22;2.83;;;1.60;;
21677;SDS011;11000;50.360;7.582;2022-09-01T01:09:43;3.30;;;1.80;;
21677;SDS011;11000;50.360;7.582;2022-09-01T01:12:05;2.80;;;1.67;;
21677;SDS011;11000;50.360;7.582;2022-09-01T01:14:30;1.93;;;1.50;;
21677;SDS011;11000;50.360;7.582;2022-09-01T01:16:55;5.53;;;1.93;;
21677;SDS011;11000;50.360;7.582;2022-09-01T01:19:25;1.70;;;1.60;;
21677;SDS011;11000;50.360;7.582;2022-09-01T01:25:22;2.20;;;2.00;;
21677;SDS011;11000;50.360;7.582;2022-09-01T01:27:43;3.57;;;1.77;;
21677;SDS011;11000;50.360;7.582;2022-09-01T01:30:04;3.50;;;2.03;;
21677;SDS011;11000;50.360;7.582;2022-09-01T01:32:28;4.90;;;1.80;;
21677;SDS011;11000;50.360;7.582;2022-09-01T01:34:49;2.70;;;2.00;;
21677;SDS011;11000;50.360;7.582;2022-09-01T01:37:10;3.77;;;1.80;;
21677;SDS011;11000;50.360;7.582;2022-09-01T01:39:33;2.30;;;2.07;;
21677;SDS011;11000;50.360;7.582;2022-09-01T01:41:53;4.07;;;1.90;;
21677;SDS011;11000;50.360;7.582;2022-09-01T01:44:18;3.40;;;2.00;;
21677;SDS011;11000;50.360;7.582;2022-09-01T01:46:48;3.77;;;2.00;;
21677;SDS011;11000;50.360;7.582;2022-09-01T01:49:11;2.50;;;2.10;;
21677;SDS011;11000;50.360;7.582;2022-09-01T01:51:34;4.30;;;2.10;;
21677;SDS011;11000;50.360;7.582;2022-09-01T01:53:56;2.37;;;1.97;;
21677;SDS011;11000;50.360;7.582;2022-09-01T01:56:21;4.27;;;2.27;;
21677;SDS011;11000;50.360;7.582;2022-09-01T01:58:45;5.50;;;2.10;;
21677;SDS011;11000;50.360;7.582;2022-09-01T02:01:06;2.63;;;2.10;;
21677;SDS011;11000;50.360;7.582;2022-09-01T02:03:30;2.47;;;2.17;;
21677;SDS011;11000;50.360;7.582;2022-09-01T02:05:57;3.10;;;2.10;;
21677;SDS011;11000;50.360;7.582;2022-09-01T02:08:23;2.33;;;2.10;;
21677;SDS011;11000;50.360;7.582;2022-09-01T02:10:46;2.30;;;2.10;;
21677;SDS011;11000;50.360;7.582;2022-09-01T02:13:09;2.90;;;1.90;;
21677;SDS011;11000;50.360;7.582;2022-09-01T02:15:36;3.17;;;2.03;;
21677;SDS011;11000;50.360;7.582;2022-09-01T02:18:03;3.40;;;2.47;;
21677;SDS011;11000;50.360;7.582;2022-09-01T02:20:25;2.70;;;2.50;;
21677;SDS011;11000;50.360;7.582;2022-09-01T02:22:48;2.87;;;2.00;;
21677;SDS011;11000;50.360;7.582;2022-09-01T02:25:10;2.90;;;2.13;;
21677;SDS011;11000;50.360;7.582;2022-09-01T02:27:32;1.60;;;1.50;;
21677;SDS011;11000;50.360;7.582;2022-09-01T02:29:54;3.00;;;2.17;;
21677;SDS011;11000;50.360;7.582;2022-09-01T02:32:14;4.23;;;2.17;;
21677;SDS011;11000;50.360;7.582;2022-09-01T02:34:40;3.67;;;2.40;;
21677;SDS011;11000;50.360;7.582;2022-09-01T02:37:01;2.83;;;2.37;;
21677;SDS011;11000;50.360;7.582;2022-09-01T02:39:25;5.40;;;2.40;;
21677;SDS011;11000;50.360;7.582;2022-09-01T02:41:47;2.33;;;2.13;;
21677;SDS011;11000;50.360;7.582;2022-09-01T02:44:09;2.10;;;1.90;;
21677;SDS011;11000;50.360;7.582;2022-09-01T02:46:33;2.90;;;2.23;;
21677;SDS011;11000;50.360;7.582;2022-09-01T02:48:56;2.87;;;2.30;;
21677;SDS011;11000;50.360;7.582;2022-09-01T02:51:20;2.73;;;1.97;;
21677;SDS011;11000;50.360;7.582;2022-09-01T02:53:44;2.50;;;2.30;;
21677;SDS011;11000;50.360;7.582;2022-09-01T02:56:11;4.03;;;2.43;;
21677;SDS011;11000;50.360;7.582;2022-09-01T02:58:33;5.60;;;2.30;;
21677;SDS011;11000;50.360;7.582;2022-09-01T03:00:55;3.27;;;2.37;;
21677;SDS011;11000;50.360;7.582;2022-09-01T03:03:16;2.90;;;2.30;;
21677;SDS011;11000;50.360;7.582;2022-09-01T03:05:38;2.90;;;2.40;;
21677;SDS011;11000;50.360;7.582;2022-09-01T03:08:00;3.23;;;2.37;;
21677;SDS011;11000;50.360;7.582;2022-09-01T03:10:24;2.53;;;2.33;;
21677;SDS011;11000;50.360;7.582;2022-09-01T03:12:52;4.43;;;2.23;;
21677;SDS011;11000;50.360;7.582;2022-09-01T03:15:13;4.40;;;2.23;;
21677;SDS011;11000;50.360;7.582;2022-09-01T03:17:33;2.80;;;2.43;;
21677;SDS011;11000;50.360;7.582;2022-09-01T03:19:54;4.50;;;2.00;;
21677;SDS011;11000;50.360;7.582;2022-09-01T03:22:14;4.03;;;2.67;;
21677;SDS011;11000;50.360;7.582;2022-09-01T03:24:35;4.77;;;2.20;;
21677;SDS011;11000;50.360;7.582;2022-09-01T03:26:55;4.77;;;2.23;;
21677;SDS011;11000;50.360;7.582;2022-09-01T03:29:17;2.83;;;2.23;;
21677;SDS011;11000;50.360;7.582;2022-09-01T03:31:38;3.30;;;2.40;;
21677;SDS011;11000;50.360;7.582;2022-09-01T03:33:59;4.73;;;2.33;;
21677;SDS011;11000;50.360;7.582;2022-09-01T03:36:20;2.73;;;2.10;;
21677;SDS011;11000;50.360;7.582;2022-09-01T03:38:40;2.77;;;2.53;;
21677;SDS011;11000;50.360;7.582;2022-09-01T03:41:03;5.73;;;2.50;;
21677;SDS011;11000;50.360;7.582;2022-09-01T03:43:24;2.50;;;2.30;;
21677;SDS011;11000;50.360;7.582;2022-09-01T03:45:46;4.10;;;2.77;;
21677;SDS011;11000;50.360;7.582;2022-09-01T03:48:07;3.17;;;2.87;;
21677;SDS011;11000;50.360;7.582;2022-09-01T03:50:28;3.13;;;2.50;;
21677;SDS011;11000;50.360;7.582;2022-09-01T03:52:50;3.00;;;2.70;;
21677;SDS011;11000;50.360;7.582;2022-09-01T03:55:14;3.13;;;2.83;;
21677;SDS011;11000;50.360;7.582;2022-09-01T03:57:42;3.00;;;2.80;;
21677;SDS011;11000;50.360;7.582;2022-09-01T04:00:03;3.20;;;2.80;;
21677;SDS011;11000;50.360;7.582;2022-09-01T04:02:23;3.17;;;2.53;;
21677;SDS011;11000;50.360;7.582;2022-09-01T04:04:48;3.17;;;2.47;;
21677;SDS011;11000;50.360;7.582;2022-09-01T04:07:09;3.00;;;2.70;;
21677;SDS011;11000;50.360;7.582;2022-09-01T04:09:31;2.77;;;2.57;;
21677;SDS011;11000;50.360;7.582;2022-09-01T04:11:54;3.00;;;2.80;;
21677;SDS011;11000;50.360;7.582;2022-09-01T04:14:14;2.90;;;2.70;;
21677;SDS011;11000;50.360;7.582;2022-09-01T04:16:35;3.30;;;3.00;;
21677;SDS011;11000;50.360;7.582;2022-09-01T04:19:19;3.17;;;2.60;;
21677;SDS011;11000;50.360;7.582;2022-09-01T04:21:46;3.20;;;2.90;;
21677;SDS011;11000;50.360;7.582;2022-09-01T04:24:09;4.17;;;2.87;;
21677;SDS011;11000;50.360;7.582;2022-09-01T04:26:32;3.33;;;3.03;;
21677;SDS011;11000;50.360;7.582;2022-09-01T04:28:52;6.53;;;2.90;;
21677;SDS011;11000;50.360;7.582;2022-09-01T04:31:18;5.43;;;2.90;;
21677;SDS011;11000;50.360;7.582;2022-09-01T04:33:40;3.23;;;2.80;;
21677;SDS011;11000;50.360;7.582;2022-09-01T04:36:04;6.60;;;2.57;;
21677;SDS011;11000;50.360;7.582;2022-09-01T04:38:25;2.80;;;2.50;;
21677;SDS011;11000;50.360;7.582;2022-09-01T04:40:49;3.97;;;2.97;;
21677;SDS011;11000;50.360;7.582;2022-09-01T04:43:11;3.47;;;3.13;;
21677;SDS011;11000;50.360;7.582;2022-09-01T04:45:33;3.70;;;2.97;;
21677;SDS011;11000;50.360;7.582;2022-09-01T04:47:55;3.17;;;2.97;;
21677;SDS011;11000;50.360;7.582;2022-09-01T04:50:15;3.73;;;3.20;;
21677;SDS011;11000;50.360;7.582;2022-09-01T04:52:36;4.27;;;2.93;;
21677;SDS011;11000;50.360;7.582;2022-09-01T04:54:56;4.90;;;2.73;;
21677;SDS011;11000;50.360;7.582;2022-09-01T04:57:17;3.37;;;2.97;;
21677;SDS011;11000;50.360;7.582;2022-09-01T04:59:38;3.20;;;2.80;;
21677;SDS011;11000;50.360;7.582;2022-09-01T05:01:58;3.73;;;2.90;;
21677;SDS011;11000;50.360;7.582;2022-09-01T05:04:21;2.80;;;2.60;;
21677;SDS011;11000;50.360;7.582;2022-09-01T05:06:44;3.00;;;2.80;;
21677;SDS011;11000;50.360;7.582;2022-09-01T05:09:11;3.00;;;2.80;;
21677;SDS011;11000;50.360;7.582;2022-09-01T05:11:32;3.03;;;2.80;;
21677;SDS011;11000;50.360;7.582;2022-09-01T05:13:53;3.20;;;3.00;;
21677;SDS011;11000;50.360;7.582;2022-09-01T05:16:17;3.57;;;2.87;;
21677;SDS011;11000;50.360;7.582;2022-09-01T05:18:41;4.83;;;2.90;;
21677;SDS011;11000;50.360;7.582;2022-09-01T05:21:07;3.90;;;3.27;;
21677;SDS011;11000;50.360;7.582;2022-09-01T05:23:29;3.07;;;2.87;;
21677;SDS011;11000;50.360;7.582;2022-09-01T05:25:51;3.37;;;3.07;;
21677;SDS011;11000;50.360;7.582;2022-09-01T05:28:14;3.50;;;3.20;;
21677;SDS011;11000;50.360;7.582;2022-09-01T05:30:38;3.53;;;3.23;;
21677;SDS011;11000;50.360;7.582;2022-09-01T05:33:00;3.87;;;3.07;;
21677;SDS011;11000;50.360;7.582;2022-09-01T05:35:20;4.17;;;3.20;;
21677;SDS011;11000;50.360;7.582;2022-09-01T05:37:43;3.37;;;3.07;;
21677;SDS011;11000;50.360;7.582;2022-09-01T05:40:04;4.50;;;3.30;;
21677;SDS011;11000;50.360;7.582;2022-09-01T05:42:26;3.90;;;3.10;;
21677;SDS011;11000;50.360;7.582;2022-09-01T05:44:48;3.83;;;2.83;;
21677;SDS011;11000;50.360;7.582;2022-09-01T05:47:09;4.23;;;3.20;;
21677;SDS011;11000;50.360;7.582;2022-09-01T05:49:31;2.80;;;2.60;;
21677;SDS011;11000;50.360;7.582;2022-09-01T05:51:52;4.37;;;2.70;;
21677;SDS011;11000;50.360;7.582;2022-09-01T05:54:18;3.00;;;2.70;;
21677;SDS011;11000;50.360;7.582;2022-09-01T05:56:42;3.13;;;2.70;;
21677;SDS011;11000;50.360;7.582;2022-09-01T05:59:03;3.33;;;3.03;;
21677;SDS011;11000;50.360;7.582;2022-09-01T06:01:25;4.23;;;2.90;;
21677;SDS011;11000;50.360;7.582;2022-09-01T06:03:47;3.50;;;3.13;;
21677;SDS011;11000;50.360;7.582;2022-09-01T06:06:13;3.57;;;2.80;;
21677;SDS011;11000;50.360;7.582;2022-09-01T06:08:34;4.00;;;3.00;;
21677;SDS011;11000;50.360;7.582;2022-09-01T06:10:55;3.90;;;2.70;;
21677;SDS011;11000;50.360;7.582;2022-09-01T06:13:16;3.37;;;2.33;;
21677;SDS011;11000;50.360;7.582;2022-09-01T06:15:40;5.27;;;2.87;;
21677;SDS011;11000;50.360;7.582;2022-09-01T06:18:02;2.93;;;2.53;;
21677;SDS011;11000;50.360;7.582;2022-09-01T06:20:22;3.30;;;3.00;;
21677;SDS011;11000;50.360;7.582;2022-09-01T06:22:43;3.20;;;2.90;;
21677;SDS011;11000;50.360;7.582;2022-09-01T06:25:04;3.27;;;2.50;;
21677;SDS011;11000;50.360;7.582;2022-09-01T06:27:27;5.57;;;3.03;;
21677;SDS011;11000;50.360;7.582;2022-09-01T06:29:48;4.73;;;2.43;;
21677;SDS011;11000;50.360;7.582;2022-09-01T06:32:12;3.67;;;2.70;;
21677;SDS011;11000;50.360;7.582;2022-09-01T06:34:33;4.23;;;3.10;;
21677;SDS011;11000;50.360;7.582;2022-09-01T06:36:54;5.67;;;2.87;;
21677;SDS011;11000;50.360;7.582;2022-09-01T06:39:15;4.67;;;2.67;;
21677;SDS011;11000;50.360;7.582;2022-09-01T06:41:38;4.20;;;2.90;;
21677;SDS011;11000;50.360;7.582;2022-09-01T06:43:59;4.37;;;2.70;;
21677;SDS011;11000;50.360;7.582;2022-09-01T06:46:20;4.30;;;2.80;;
21677;SDS011;11000;50.360;7.582;2022-09-01T06:48:42;4.10;;;2.60;;
21677;SDS011;11000;50.360;7.582;2022-09-01T06:51:06;2.53;;;2.33;;
21677;SDS011;11000;50.360;7.582;2022-09-01T06:53:29;4.17;;;2.67;;
21677;SDS011;11000;50.360;7.582;2022-09-01T06:55:50;3.70;;;2.50;;
21677;SDS011;11000;50.360;7.582;2022-09-01T06:58:12;6.13;;;2.43;;
21677;SDS011;11000;50.360;7.582;2022-09-01T07:00:37;4.97;;;2.63;;
21677;SDS011;11000;50.360;7.582;2022-09-01T07:03:01;2.80;;;2.60;;
21677;SDS011;11000;50.360;7.582;2022-09-01T07:05:28;5.63;;;2.90;;
21677;SDS011;11000;50.360;7.582;2022-09-01T07:07:50;3.40;;;2.80;;
21677;SDS011;11000;50.360;7.582;2022-09-01T07:10:14;3.17;;;2.00;;
21677;SDS011;11000;50.360;7.582;2022-09-01T07:12:35;3.17;;;2.80;;
21677;SDS011;11000;50.360;7.582;2022-09-01T07:14:56;5.20;;;2.20;;
21677;SDS011;11000;50.360;7.582;2022-09-01T07:17:19;4.37;;;1.77;;
21677;SDS011;11000;50.360;7.582;2022-09-01T07:19:40;4.40;;;2.13;;
21677;SDS011;11000;50.360;7.582;2022-09-01T07:22:01;2.37;;;1.93;;
21677;SDS011;11000;50.360;7.582;2022-09-01T07:24:21;2.47;;;1.47;;
21677;SDS011;11000;50.360;7.582;2022-09-01T07:26:42;1.77;;;1.13;;
21677;SDS011;11000;50.360;7.582;2022-09-01T07:29:04;2.87;;;1.10;;
21677;SDS011;11000;50.360;7.582;2022-09-01T07:31:26;0.97;;;0.93;;
21677;SDS011;11000;50.360;7.582;2022-09-01T07:34:00;3.53;;;1.47;;
21677;SDS011;11000;50.360;7.582;2022-09-01T07:36:23;1.30;;;1.20;;
21677;SDS011;11000;50.360;7.582;2022-09-01T07:38:44;1.60;;;1.07;;
21677;SDS011;11000;50.360;7.582;2022-09-01T07:41:12;2.30;;;1.10;;
21677;SDS011;11000;50.360;7.582;2022-09-01T07:43:33;1.47;;;1.37;;
21677;SDS011;11000;50.360;7.582;2022-09-01T07:45:54;1.73;;;1.07;;
21677;SDS011;11000;50.360;7.582;2022-09-01T07:48:17;3.23;;;0.90;;
21677;SDS011;11000;50.360;7.582;2022-09-01T07:50:41;3.27;;;1.30;;
21677;SDS011;11000;50.360;7.582;2022-09-01T07:53:06;3.20;;;1.00;;
21677;SDS011;11000;50.360;7.582;2022-09-01T07:55:28;1.80;;;1.03;;
21677;SDS011;11000;50.360;7.582;2022-09-01T07:57:48;2.77;;;1.27;;
21677;SDS011;11000;50.360;7.582;2022-09-01T08:00:09;1.50;;;1.20;;
21677;SDS011;11000;50.360;7.582;2022-09-01T08:02:32;1.83;;;0.90;;
21677;SDS011;11000;50.360;7.582;2022-09-01T08:04:52;1.30;;;1.20;;
21677;SDS011;11000;50.360;7.582;2022-09-01T08:07:14;1.10;;;1.00;;
21677;SDS011;11000;50.360;7.582;2022-09-01T08:09:35;2.03;;;1.37;;
21677;SDS011;11000;50.360;7.582;2022-09-01T08:11:57;1.20;;;1.10;;
21677;SDS011;11000;50.360;7.582;2022-09-01T08:14:17;2.93;;;1.07;;
21677;SDS011;11000;50.360;7.582;2022-09-01T08:16:38;2.70;;;1.10;;
21677;SDS011;11000;50.360;7.582;2022-09-01T08:18:58;1.70;;;1.10;;
21677;SDS011;11000;50.360;7.582;2022-09-01T08:21:19;6.40;;;1.70;;
21677;SDS011;11000;50.360;7.582;2022-09-01T08:23:42;2.40;;;1.10;;
21677;SDS011;11000;50.360;7.582;2022-09-01T08:26:10;1.53;;;1.30;;
21677;SDS011;11000;50.360;7.582;2022-09-01T08:28:33;1.63;;;1.13;;
21677;SDS011;11000;50.360;7.582;2022-09-01T08:30:53;2.90;;;1.37;;
21677;SDS011;11000;50.360;7.582;2022-09-01T08:33:14;4.30;;;1.00;;
21677;SDS011;11000;50.360;7.582;2022-09-01T08:35:36;1.47;;;1.33;;
21677;SDS011;11000;50.360;7.582;2022-09-01T08:37:58;3.47;;;1.30;;
21677;SDS011;11000;50.360;7.582;2022-09-01T08:40:20;1.70;;;1.13;;
21677;SDS011;11000;50.360;7.582;2022-09-01T08:47:39;2.93;;;1.20;;
21677;SDS011;11000;50.360;7.582;2022-09-01T08:49:59;1.50;;;1.30;;
21677;SDS011;11000;50.360;7.582;2022-09-01T08:52:33;2.83;;;1.50;;
21677;SDS011;11000;50.360;7.582;2022-09-01T08:55:13;1.87;;;1.40;;
21677;SDS011;11000;50.360;7.582;2022-09-01T08:57:44;1.37;;;1.23;;
21677;SDS011;11000;50.360;7.582;2022-09-01T09:00:08;2.00;;;1.50;;
21677;SDS011;11000;50.360;7.582;2022-09-01T09:05:24;1.77;;;1.37;;
21677;SDS011;11000;50.360;7.582;2022-09-01T09:10:28;2.63;;;1.23;;
21677;SDS011;11000;50.360;7.582;2022-09-01T09:13:16;3.10;;;1.30;;
21677;SDS011;11000;50.360;7.582;2022-09-01T09:19:09;1.87;;;1.27;;
21677;SDS011;11000;50.360;7.582;2022-09-01T09:21:18;1.77;;;1.37;;
21677;SDS011;11000;50.360;7.582;2022-09-01T09:23:45;5.80;;;1.73;;
21677;SDS011;11000;50.360;7.582;2022-09-01T09:26:10;1.53;;;1.43;;
21677;SDS011;11000;50.360;7.582;2022-09-01T09:28:30;3.37;;;1.60;;
21677;SDS011;11000;50.360;7.582;2022-09-01T09:31:23;1.83;;;1.43;;
21677;SDS011;11000;50.360;7.582;2022-09-01T09:33:45;1.73;;;1.50;;
21677;SDS011;11000;50.360;7.582;2022-09-01T09:36:14;3.23;;;1.40;;
21677;SDS011;11000;50.360;7.582;2022-09-01T09:38:40;2.60;;;1.40;;
21677;SDS011;11000;50.360;7.582;2022-09-01T09:41:05;2.13;;;1.70;;
21677;SDS011;11000;50.360;7.582;2022-09-01T09:43:28;3.00;;;1.80;;
21677;SDS011;11000;50.360;7.582;2022-09-01T09:45:51;2.43;;;1.80;;
21677;SDS011;11000;50.360;7.582;2022-09-01T09:48:40;4.03;;;2.13;;
21677;SDS011;11000;50.360;7.582;2022-09-01T09:51:16;2.00;;;1.80;;
21677;SDS011;11000;50.360;7.582;2022-09-01T09:53:40;2.80;;;1.90;;
21677;SDS011;11000;50.360;7.582;2022-09-01T09:56:20;2.63;;;1.50;;
21677;SDS011;11000;50.360;7.582;2022-09-01T09:58:44;2.27;;;1.90;;
21677;SDS011;11000;50.360;7.582;2022-09-01T10:01:10;3.93;;;2.00;;
21677;SDS011;11000;50.360;7.582;2022-09-01T10:03:48;3.07;;;2.00;;
21677;SDS011;11000;50.360;7.582;2022-09-01T10:06:11;2.20;;;1.60;;
21677;SDS011;11000;50.360;7.582;2022-09-01T10:08:37;2.77;;;1.87;;
21677;SDS011;11000;50.360;7.582;2022-09-01T10:11:06;2.37;;;2.00;;
21677;SDS011;11000;50.360;7.582;2022-09-01T10:13:27;4.40;;;2.00;;
21677;SDS011;11000;50.360;7.582;2022-09-01T10:15:50;1.90;;;1.60;;
21677;SDS011;11000;50.360;7.582;2022-09-01T10:18:14;2.07;;;1.83;;
21677;SDS011;11000;50.360;7.582;2022-09-01T10:20:36;3.57;;;2.10;;
21677;SDS011;11000;50.360;7.582;2022-09-01T10:22:58;4.40;;;2.23;;
21677;SDS011;11000;50.360;7.582;2022-09-01T10:25:22;2.57;;;1.90;;
21677;SDS011;11000;50.360;7.582;2022-09-01T10:27:48;2.33;;;2.10;;
21677;SDS011;11000;50.360;7.582;2022-09-01T10:30:13;2.40;;;2.20;;
21677;SDS011;11000;50.360;7.582;2022-09-01T10:32:38;2.60;;;2.00;;
21677;SDS011;11000;50.360;7.582;2022-09-01T10:35:04;2.57;;;1.70;;
21677;SDS011;11000;50.360;7.582;2022-09-01T10:37:27;3.23;;;1.67;;
21677;SDS011;11000;50.360;7.582;2022-09-01T10:42:30;1.80;;;1.70;;
21677;SDS011;11000;50.360;7.582;2022-09-01T10:44:55;1.93;;;1.80;;
21677;SDS011;11000;50.360;7.582;2022-09-01T10:47:24;3.17;;;2.10;;
21677;SDS011;11000;50.360;7.582;2022-09-01T10:52:09;2.87;;;1.70;;
21677;SDS011;11000;50.360;7.582;2022-09-01T10:56:59;2.47;;;1.73;;
21677;SDS011;11000;50.360;7.582;2022-09-01T11:04:02;2.60;;;2.00;;
21677;SDS011;11000;50.360;7.582;2022-09-01T11:09:02;2.13;;;1.87;;
21677;SDS011;11000;50.360;7.582;2022-09-01T11:11:28;2.70;;;2.20;;
21677;SDS011;11000;50.360;7.582;2022-09-01T11:14:15;2.37;;;1.90;;
21677;SDS011;11000;50.360;7.582;2022-09-01T11:16:43;3.23;;;1.97;;
21677;SDS011;11000;50.360;7.582;2022-09-01T11:19:55;1.80;;;1.70;;
21677;SDS011;11000;50.360;7.582;2022-09-01T11:22:26;3.47;;;2.10;;
21677;SDS011;11000;50.360;7.582;2022-09-01T11:28:30;2.93;;;2.10;;
21677;SDS011;11000;50.360;7.582;2022-09-01T11:30:22;2.07;;;1.87;;
21677;SDS011;11000;50.360;7.582;2022-09-01T11:35:45;2.23;;;1.70;;
21677;SDS011;11000;50.360;7.582;2022-09-01T11:38:06;2.50;;;1.77;;
21677;SDS011;11000;50.360;7.582;2022-09-01T11:40:32;1.93;;;1.83;;
21677;SDS011;11000;50.360;7.582;2022-09-01T11:42:55;3.83;;;1.63;;
21677;SDS011;11000;50.360;7.582;2022-09-01T11:45:20;4.20;;;1.70;;
21677;SDS011;11000;50.360;7.582;2022-09-01T11:47:46;2.67;;;2.10;;
21677;SDS011;11000;50.360;7.582;2022-09-01T11:50:26;2.53;;;1.70;;
21677;SDS011;11000;50.360;7.582;2022-09-01T11:55:30;2.07;;;1.97;;
21677;SDS011;11000;50.360;7.582;2022-09-01T11:57:55;3.53;;;1.93;;
21677;SDS011;11000;50.360;7.582;2022-09-01T12:00:20;1.87;;;1.77;;
21677;SDS011;11000;50.360;7.582;2022-09-01T12:02:49;5.73;;;1.77;;
21677;SDS011;11000;50.360;7.582;2022-09-01T12:05:44;3.33;;;1.60;;
21677;SDS011;11000;50.360;7.582;2022-09-01T12:07:58;2.47;;;2.07;;
21677;SDS011;11000;50.360;7.582;2022-09-01T12:10:37;4.30;;;1.80;;
21677;SDS011;11000;50.360;7.582;2022-09-01T12:13:03;5.57;;;2.43;;
21677;SDS011;11000;50.360;7.582;2022-09-01T12:15:26;4.07;;;2.40;;
21677;SDS011;11000;50.360;7.582;2022-09-01T12:17:46;3.50;;;1.80;;
21677;SDS011;11000;50.360;7.582;2022-09-01T12:20:27;2.43;;;1.90;;
21677;SDS011;11000;50.360;7.582;2022-09-01T12:22:54;7.83;;;2.00;;
21677;SDS011;11000;50.360;7.582;2022-09-01T12:25:19;2.40;;;1.90;;
21677;SDS011;11000;50.360;7.582;2022-09-01T12:27:43;2.00;;;1.77;;
21677;SDS011;11000;50.360;7.582;2022-09-01T12:30:04;2.83;;;2.00;;
21677;SDS011;11000;50.360;7.582;2022-09-01T12:32:27;6.27;;;2.20;;
21677;SDS011;11000;50.360;7.582;2022-09-01T12:34:58;1.90;;;1.70;;
21677;SDS011;11000;50.360;7.582;2022-09-01T12:37:21;3.87;;;1.90;;
21677;SDS011;11000;50.360;7.582;2022-09-01T12:39:44;3.90;;;2.17;;
21677;SDS011;11000;50.360;7.582;2022-09-01T12:47:02;1.93;;;1.77;;
21677;SDS011;11000;50.360;7.582;2022-09-01T12:49:33;1.70;;;1.60;;
21677;SDS011;11000;50.360;7.582;2022-09-01T12:54:45;3.27;;;2.10;;
21677;SDS011;11000;50.360;7.582;2022-09-01T12:57:08;1.80;;;1.70;;
21677;SDS011;11000;50.360;7.582;2022-09-01T12:59:30;3.00;;;1.70;;
21677;SDS011;11000;50.360;7.582;2022-09-01T13:01:50;1.83;;;1.70;;
21677;SDS011;11000;50.360;7.582;2022-09-01T13:06:44;1.90;;;1.60;;
21677;SDS011;11000;50.360;7.582;2022-09-01T13:09:04;2.20;;;1.77;;
21677;SDS011;11000;50.360;7.582;2022-09-01T13:11:25;3.07;;;2.10;;
21677;SDS011;11000;50.360;7.582;2022-09-01T13:13:45;3.77;;;1.83;;
21677;SDS011;11000;50.360;7.582;2022-09-01T13:16:06;2.33;;;1.70;;
21677;SDS011;11000;50.360;7.582;2022-09-01T13:18:31;1.97;;;1.87;;
21677;SDS011;11000;50.360;7.582;2022-09-01T13:20:52;1.57;;;1.47;;
21677;SDS011;11000;50.360;7.582;2022-09-01T13:23:15;2.33;;;1.73;;
21677;SDS011;11000;50.360;7.582;2022-09-01T13:25:36;2.00;;;1.20;;
21677;SDS011;11000;50.360;7.582;2022-09-01T13:27:57;1.77;;;1.67;;
21677;SDS011;11000;50.360;7.582;2022-09-01T13:30:23;1.60;;;1.50;;
21677;SDS011;11000;50.360;7.582;2022-09-01T13:32:47;1.73;;;1.63;;
21677;SDS011;11000;50.360;7.582;2022-09-01T13:35:08;1.83;;;1.70;;
21677;SDS011;11000;50.360;7.582;2022-09-01T13:37:30;1.53;;;1.43;;
21677;SDS011;11000;50.360;7.582;2022-09-01T13:39:51;1.33;;;1.30;;
21677;SDS011;11000;50.360;7.582;2022-09-01T13:42:15;1.63;;;1.53;;
21677;SDS011;11000;50.360;7.582;2022-09-01T13:44:36;1.20;;;1.10;;
21677;SDS011;11000;50.360;7.582;2022-09-01T13:46:57;1.67;;;1.37;;
21677;SDS011;11000;50.360;7.582;2022-09-01T13:49:18;2.10;;;1.30;;
21677;SDS011;11000;50.360;7.582;2022-09-01T13:51:38;1.60;;;1.50;;
21677;SDS011;11000;50.360;7.582;2022-09-01T13:53:59;1.73;;;1.40;;
21677;SDS011;11000;50.360;7.582;2022-09-01T13:56:20;1.87;;;1.40;;
21677;SDS011;11000;50.360;7.582;2022-09-01T13:58:40;1.60;;;1.43;;
21677;SDS011;11000;50.360;7.582;2022-09-01T14:01:01;2.20;;;1.40;;
21677;SDS011;11000;50.360;7.582;2022-09-01T14:03:22;1.70;;;1.30;;
21677;SDS011;11000;50.360;7.582;2022-09-01T14:05:43;1.50;;;1.37;;
21677;SDS011;11000;50.360;7.582;2022-09-01T14:08:06;3.43;;;1.20;;
21677;SDS011;11000;50.360;7.582;2022-09-01T14:10:28;2.87;;;1.37;;
21677;SDS011;11000;50.360;7.582;2022-09-01T14:12:52;2.73;;;1.30;;
21677;SDS011;11000;50.360;7.582;2022-09-01T14:15:13;1.40;;;1.30;;
21677;SDS011;11000;50.360;7.582;2022-09-01T14:17:36;2.00;;;1.53;;
21677;SDS011;11000;50.360;7.582;2022-09-01T14:19:57;1.73;;;1.60;;
21677;SDS011;11000;50.360;7.582;2022-09-01T14:22:18;2.63;;;1.20;;
21677;SDS011;11000;50.360;7.582;2022-09-01T14:24:38;1.77;;;1.40;;
21677;SDS011;11000;50.360;7.582;2022-09-01T14:26:59;1.90;;;1.30;;
21677;SDS011;11000;50.360;7.582;2022-09-01T14:29:19;1.40;;;1.30;;
21677;SDS011;11000;50.360;7.582;2022-09-01T14:31:40;1.63;;;1.47;;
21677;SDS011;11000;50.360;7.582;2022-09-01T14:34:02;2.07;;;1.30;;
21677;SDS011;11000;50.360;7.582;2022-09-01T14:36:24;2.00;;;1.50;;
21677;SDS011;11000;50.360;7.582;2022-09-01T14:38:45;3.20;;;1.70;;
21677;SDS011;11000;50.360;7.582;2022-09-01T14:41:07;1.83;;;1.60;;
21677;SDS011;11000;50.360;7.582;2022-09-01T14:43:31;3.87;;;1.50;;
21677;SDS011;11000;50.360;7.582;2022-09-01T14:46:02;1.63;;;1.53;;
21677;SDS011;11000;50.360;7.582;2022-09-01T14:48:28;1.20;;;1.10;;
21677;SDS011;11000;50.360;7.582;2022-09-01T14:50:48;2.80;;;1.60;;
21677;SDS011;11000;50.360;7.582;2022-09-01T14:53:10;1.50;;;1.40;;
21677;SDS011;11000;50.360;7.582;2022-09-01T14:55:31;3.10;;;1.40;;
21677;SDS011;11000;50.360;7.582;2022-09-01T14:57:51;1.30;;;1.20;;
21677;SDS011;11000;50.360;7.582;2022-09-01T15:00:13;2.13;;;1.70;;
21677;SDS011;11000;50.360;7.582;2022-09-01T15:02:34;1.80;;;1.70;;
21677;SDS011;11000;50.360;7.582;2022-09-01T15:04:55;1.80;;;1.60;;
21677;SDS011;11000;50.360;7.582;2022-09-01T15:07:16;1.40;;;1.30;;
21677;SDS011;11000;50.360;7.582;2022-09-01T15:09:36;1.60;;;1.40;;
21677;SDS011;11000;50.360;7.582;2022-09-01T15:11:57;3.27;;;1.63;;
21677;SDS011;11000;50.360;7.582;2022-09-01T15:14:17;2.83;;;1.23;;
21677;SDS011;11000;50.360;7.582;2022-09-01T15:16:38;2.00;;;1.40;;